Sevenpersons, Canada
Current Conditions -  °F | °C
As of 2:00 AM on Sunday 26 Oct 2014 (Local Time) from CYXH Reporting Station
Clear Clear  
Wind Chill:   Ceiling: Unl
Heat Index:   Visibility: 9mi
Dew Point:   Wind: 2mph
Humidity: 81%   Direction: 350°N
Pressure: 29.45"   Gusts: NA
Location:  49.87°N, 110.9°W
Report Text: CYXH 260800Z AUTO 35002KT 9SM CLR 05/02 A2945 RMK SLP983
Loading
Personal Weather Stations






























Interactive Weather Map
Tropical Storm Tracking
New forecast layout! Learn more

10-Day Weather Forecast

Advertisements
Track Severe Weather on mobile